Погода Матанна неделю

Сан-Паулу, Бразилия

22 - 28 июля
  • 22июля
    Сегодня
    +16°
    +30°
    Ясно и безоблачно
    ВремяПогодаТемператураВлажностьДавлениеВетер, м/сВероятность осадков
    00:00Ясно и безоблачно+19°C43 %715 мм3.1 м/с5 %
    03:00Ясно и безоблачно+18°C50 %714 мм3.5 м/с5 %
    06:00Ясно и безоблачно+16°C58 %714 мм2.9 м/с5 %
    09:00Ясно и безоблачно+20°C44 %716 мм1.9 м/с5 %
    12:00Ясно и безоблачно+27°C27 %717 мм0.1 м/с5 %
    15:00Ясно и безоблачно+29°C24 %715 мм0.3 м/с5 %
    18:00Ясно и безоблачно+25°C36 %714 мм2.2 м/с5 %
    21:00Ясно и безоблачно+23°C40 %715 мм3.4 м/с5 %
  • 23июля
    Вторник
    +16°
    +31°
    Ясно и безоблачно
    ВремяПогодаТемператураВлажностьДавлениеВетер, м/сВероятность осадков
    00:00Ясно и безоблачно+20°C49 %715 мм3.1 м/с5 %
    03:00Ясно и безоблачно+17°C60 %714 мм2.8 м/с5 %
    06:00Ясно и безоблачно+17°C59 %715 мм3.5 м/с5 %
    09:00Ясно и безоблачно+20°C46 %717 мм3.7 м/с5 %
    12:00Ясно и безоблачно+28°C30 %717 мм2.9 м/с5 %
    15:00Ясно и безоблачно+30°C24 %715 мм1.6 м/с5 %
    18:00Ясно и безоблачно+26°C35 %714 мм2.2 м/с5 %
    21:00Ясно и безоблачно+24°C30 %715 мм3.8 м/с5 %
  • 24июля
    Среда
    +17°
    +31°
    Небольшая облачность
    ВремяПогодаТемператураВлажностьДавлениеВетер, м/сВероятность осадков
    00:00Небольшая облачность+20°C38 %715 мм3.8 м/с5 %
    03:00Практически безоблачно+18°C45 %714 мм3.8 м/с5 %
    06:00Ясно и безоблачно+17°C49 %714 мм4.4 м/с5 %
    09:00Ясно и безоблачно+20°C47 %716 мм4.3 м/с5 %
    12:00Небольшая облачность+28°C30 %717 мм3.3 м/с5 %
    15:00Небольшая облачность+30°C24 %715 мм1.5 м/с5 %
    18:00Ясно и безоблачно+26°C32 %715 мм1.9 м/с5 %
    21:00Облачно с прояснениями+24°C37 %715 мм3.3 м/с5 %
  • 25июля
    Четверг
    +17°
    +31°
    Ясно и безоблачно
    ВремяПогодаТемператураВлажностьДавлениеВетер, м/сВероятность осадков
    00:00Практически безоблачно+21°C47 %715 мм3.4 м/с5 %
    03:00Ясно и безоблачно+18°C57 %714 мм3.1 м/с5 %
    06:00Ясно и безоблачно+18°C60 %714 мм3.5 м/с5 %
    09:00Ясно и безоблачно+21°C47 %716 мм3.3 м/с5 %
    12:00Ясно и безоблачно+28°C27 %715 мм3.1 м/с5 %
    15:00Ясно и безоблачно+30°C24 %713 мм2.3 м/с5 %
    18:00Ясно и безоблачно+27°C33 %713 мм1.8 м/с5 %
    21:00Ясно и безоблачно+27°C30 %713 мм1.0 м/с5 %
Мы используем cookies
Соглашаюсь